sensor_id;sensor_type;location;lat;lon;timestamp;temperature;humidity
20594;DHT22;10455;48.732;10.266;2023-07-02T00:00:21;16.10;99.90
20594;DHT22;10455;48.732;10.266;2023-07-02T00:05:24;16.30;99.90
20594;DHT22;10455;48.732;10.266;2023-07-02T00:10:26;16.20;99.90
20594;DHT22;10455;48.732;10.266;2023-07-02T00:15:28;16.40;99.90
20594;DHT22;10455;48.732;10.266;2023-07-02T00:20:33;16.40;99.90
20594;DHT22;10455;48.732;10.266;2023-07-02T00:25:38;15.50;99.90
20594;DHT22;10455;48.732;10.266;2023-07-02T00:30:40;14.90;99.90
20594;DHT22;10455;48.732;10.266;2023-07-02T00:35:43;14.90;99.90
20594;DHT22;10455;48.732;10.266;2023-07-02T00:40:45;15.00;99.90
20594;DHT22;10455;48.732;10.266;2023-07-02T00:45:47;15.00;99.90
20594;DHT22;10455;48.732;10.266;2023-07-02T00:50:50;15.00;99.90
20594;DHT22;10455;48.732;10.266;2023-07-02T00:55:52;14.90;99.90
20594;DHT22;10455;48.732;10.266;2023-07-02T01:00:54;14.70;99.90
20594;DHT22;10455;48.732;10.266;2023-07-02T01:05:58;14.50;99.90
20594;DHT22;10455;48.732;10.266;2023-07-02T01:11:04;14.20;99.90
20594;DHT22;10455;48.732;10.266;2023-07-02T01:16:06;14.20;99.90
20594;DHT22;10455;48.732;10.266;2023-07-02T01:21:09;14.20;99.90
20594;DHT22;10455;48.732;10.266;2023-07-02T01:26:11;14.00;99.90
20594;DHT22;10455;48.732;10.266;2023-07-02T01:31:13;13.90;99.90
20594;DHT22;10455;48.732;10.266;2023-07-02T01:36:16;13.90;99.90
20594;DHT22;10455;48.732;10.266;2023-07-02T01:41:18;13.80;99.90
20594;DHT22;10455;48.732;10.266;2023-07-02T01:46:20;13.80;99.90
20594;DHT22;10455;48.732;10.266;2023-07-02T01:51:23;13.60;99.90
20594;DHT22;10455;48.732;10.266;2023-07-02T01:56:25;13.60;99.90
20594;DHT22;10455;48.732;10.266;2023-07-02T02:01:27;13.60;99.90
20594;DHT22;10455;48.732;10.266;2023-07-02T02:06:30;13.60;99.90
20594;DHT22;10455;48.732;10.266;2023-07-02T02:11:34;13.50;99.90
20594;DHT22;10455;48.732;10.266;2023-07-02T02:16:36;13.70;99.90
20594;DHT22;10455;48.732;10.266;2023-07-02T02:21:39;13.90;99.90
20594;DHT22;10455;48.732;10.266;2023-07-02T02:26:41;13.80;99.90
20594;DHT22;10455;48.732;10.266;2023-07-02T02:31:43;13.70;99.90
20594;DHT22;10455;48.732;10.266;2023-07-02T02:36:46;13.60;99.90
20594;DHT22;10455;48.732;10.266;2023-07-02T02:41:48;13.50;99.90
20594;DHT22;10455;48.732;10.266;2023-07-02T02:46:50;13.50;99.90
20594;DHT22;10455;48.732;10.266;2023-07-02T02:51:53;13.50;99.90
20594;DHT22;10455;48.732;10.266;2023-07-02T02:56:55;13.40;99.90
20594;DHT22;10455;48.732;10.266;2023-07-02T03:01:57;13.50;99.90
20594;DHT22;10455;48.732;10.266;2023-07-02T03:07:00;13.60;99.90
20594;DHT22;10455;48.732;10.266;2023-07-02T03:12:03;13.60;99.90
20594;DHT22;10455;48.732;10.266;2023-07-02T03:17:05;13.50;99.90
20594;DHT22;10455;48.732;10.266;2023-07-02T03:22:09;13.40;99.90
20594;DHT22;10455;48.732;10.266;2023-07-02T03:27:11;13.30;99.90
20594;DHT22;10455;48.732;10.266;2023-07-02T03:32:12;13.30;99.90
20594;DHT22;10455;48.732;10.266;2023-07-02T03:37:16;13.20;99.90
20594;DHT22;10455;48.732;10.266;2023-07-02T03:42:18;13.20;99.90
20594;DHT22;10455;48.732;10.266;2023-07-02T03:47:20;13.50;99.90
20594;DHT22;10455;48.732;10.266;2023-07-02T03:52:23;13.80;99.90
20594;DHT22;10455;48.732;10.266;2023-07-02T03:57:25;14.00;99.90
20594;DHT22;10455;48.732;10.266;2023-07-02T04:02:27;14.10;99.90
20594;DHT22;10455;48.732;10.266;2023-07-02T04:07:31;14.30;99.90
20594;DHT22;10455;48.732;10.266;2023-07-02T04:12:33;14.50;99.90
20594;DHT22;10455;48.732;10.266;2023-07-02T04:17:35;14.60;99.90
20594;DHT22;10455;48.732;10.266;2023-07-02T04:22:38;14.50;99.90
20594;DHT22;10455;48.732;10.266;2023-07-02T04:27:40;14.60;99.90
20594;DHT22;10455;48.732;10.266;2023-07-02T04:32:41;14.70;99.90
20594;DHT22;10455;48.732;10.266;2023-07-02T04:37:45;14.60;99.90
20594;DHT22;10455;48.732;10.266;2023-07-02T04:42:47;14.70;99.90
20594;DHT22;10455;48.732;10.266;2023-07-02T04:47:49;14.70;99.90
20594;DHT22;10455;48.732;10.266;2023-07-02T04:52:52;14.80;99.90
20594;DHT22;10455;48.732;10.266;2023-07-02T04:57:54;15.00;99.90
20594;DHT22;10455;48.732;10.266;2023-07-02T05:02:56;14.90;99.90
20594;DHT22;10455;48.732;10.266;2023-07-02T05:07:59;15.00;99.90
20594;DHT22;10455;48.732;10.266;2023-07-02T05:13:01;14.90;99.90
20594;DHT22;10455;48.732;10.266;2023-07-02T05:18:03;15.10;99.90
20594;DHT22;10455;48.732;10.266;2023-07-02T05:23:06;15.20;99.90
20594;DHT22;10455;48.732;10.266;2023-07-02T05:28:08;15.00;99.90
20594;DHT22;10455;48.732;10.266;2023-07-02T05:33:10;14.70;99.90
20594;DHT22;10455;48.732;10.266;2023-07-02T05:38:14;14.70;99.90
20594;DHT22;10455;48.732;10.266;2023-07-02T05:43:16;14.90;99.90
20594;DHT22;10455;48.732;10.266;2023-07-02T05:48:18;14.90;99.90
20594;DHT22;10455;48.732;10.266;2023-07-02T05:53:21;15.30;99.90
20594;DHT22;10455;48.732;10.266;2023-07-02T05:58:23;15.30;99.90
20594;DHT22;10455;48.732;10.266;2023-07-02T06:03:25;15.40;99.90
20594;DHT22;10455;48.732;10.266;2023-07-02T06:08:28;14.90;99.90
20594;DHT22;10455;48.732;10.266;2023-07-02T06:13:30;15.00;99.90
20594;DHT22;10455;48.732;10.266;2023-07-02T06:18:32;15.30;99.90
20594;DHT22;10455;48.732;10.266;2023-07-02T06:23:41;15.60;99.90
20594;DHT22;10455;48.732;10.266;2023-07-02T06:28:43;15.50;99.90
20594;DHT22;10455;48.732;10.266;2023-07-02T06:33:45;15.80;99.90
20594;DHT22;10455;48.732;10.266;2023-07-02T06:38:48;16.50;99.90
20594;DHT22;10455;48.732;10.266;2023-07-02T06:43:50;17.90;99.90
20594;DHT22;10455;48.732;10.266;2023-07-02T06:48:52;20.10;99.90
20594;DHT22;10455;48.732;10.266;2023-07-02T06:53:55;24.40;99.90
20594;DHT22;10455;48.732;10.266;2023-07-02T06:58:57;23.10;99.90
20594;DHT22;10455;48.732;10.266;2023-07-02T07:03:59;21.70;99.90
20594;DHT22;10455;48.732;10.266;2023-07-02T07:09:03;20.10;99.90
20594;DHT22;10455;48.732;10.266;2023-07-02T07:14:05;20.60;99.90
20594;DHT22;10455;48.732;10.266;2023-07-02T07:19:06;20.60;99.90
20594;DHT22;10455;48.732;10.266;2023-07-02T07:24:10;20.60;99.90
20594;DHT22;10455;48.732;10.266;2023-07-02T07:29:12;22.40;99.90
20594;DHT22;10455;48.732;10.266;2023-07-02T07:34:14;22.60;99.90
20594;DHT22;10455;48.732;10.266;2023-07-02T07:39:17;22.60;99.90
20594;DHT22;10455;48.732;10.266;2023-07-02T07:44:19;24.90;99.90
20594;DHT22;10455;48.732;10.266;2023-07-02T07:49:20;24.90;99.90
20594;DHT22;10455;48.732;10.266;2023-07-02T07:54:24;22.40;99.90
20594;DHT22;10455;48.732;10.266;2023-07-02T07:59:26;21.70;99.90
20594;DHT22;10455;48.732;10.266;2023-07-02T08:04:27;22.00;99.90
20594;DHT22;10455;48.732;10.266;2023-07-02T08:09:31;22.00;99.90
20594;DHT22;10455;48.732;10.266;2023-07-02T08:14:33;26.20;99.90
20594;DHT22;10455;48.732;10.266;2023-07-02T08:19:35;26.80;99.90
20594;DHT22;10455;48.732;10.266;2023-07-02T08:24:38;26.50;99.90
20594;DHT22;10455;48.732;10.266;2023-07-02T08:29:40;26.50;99.90
20594;DHT22;10455;48.732;10.266;2023-07-02T08:34:42;30.30;97.80
20594;DHT22;10455;48.732;10.266;2023-07-02T08:39:45;29.80;94.40
20594;DHT22;10455;48.732;10.266;2023-07-02T08:44:47;29.50;94.20
20594;DHT22;10455;48.732;10.266;2023-07-02T08:49:50;28.30;96.50
20594;DHT22;10455;48.732;10.266;2023-07-02T08:54:53;28.30;95.80
20594;DHT22;10455;48.732;10.266;2023-07-02T08:59:55;28.10;98.00
20594;DHT22;10455;48.732;10.266;2023-07-02T09:04:59;29.80;93.90
20594;DHT22;10455;48.732;10.266;2023-07-02T09:10:02;28.10;94.60
20594;DHT22;10455;48.732;10.266;2023-07-02T09:15:05;27.90;93.70
20594;DHT22;10455;48.732;10.266;2023-07-02T09:20:08;27.70;94.30
20594;DHT22;10455;48.732;10.266;2023-07-02T09:25:11;27.60;94.50
20594;DHT22;10455;48.732;10.266;2023-07-02T09:30:14;29.10;93.80
20594;DHT22;10455;48.732;10.266;2023-07-02T09:35:16;26.60;94.70
20594;DHT22;10455;48.732;10.266;2023-07-02T09:40:19;25.80;95.30
20594;DHT22;10455;48.732;10.266;2023-07-02T09:45:21;28.70;93.20
20594;DHT22;10455;48.732;10.266;2023-07-02T09:50:23;27.60;94.70
20594;DHT22;10455;48.732;10.266;2023-07-02T09:55:27;26.90;94.50
20594;DHT22;10455;48.732;10.266;2023-07-02T10:00:29;26.00;94.70
20594;DHT22;10455;48.732;10.266;2023-07-02T10:05:32;26.60;94.60
20594;DHT22;10455;48.732;10.266;2023-07-02T10:10:36;25.70;95.00
20594;DHT22;10455;48.732;10.266;2023-07-02T10:15:38;25.70;95.90
20594;DHT22;10455;48.732;10.266;2023-07-02T10:20:41;27.00;94.10
20594;DHT22;10455;48.732;10.266;2023-07-02T10:25:44;26.20;95.00
20594;DHT22;10455;48.732;10.266;2023-07-02T10:30:46;27.30;93.30
20594;DHT22;10455;48.732;10.266;2023-07-02T10:35:49;26.10;94.00
20594;DHT22;10455;48.732;10.266;2023-07-02T10:40:55;27.50;93.00
20594;DHT22;10455;48.732;10.266;2023-07-02T10:45:58;28.90;91.30
20594;DHT22;10455;48.732;10.266;2023-07-02T10:51:11;26.60;91.50
20594;DHT22;10455;48.732;10.266;2023-07-02T10:56:18;25.90;93.70
20594;DHT22;10455;48.732;10.266;2023-07-02T11:01:24;26.10;93.90
20594;DHT22;10455;48.732;10.266;2023-07-02T11:06:26;27.90;90.20
20594;DHT22;10455;48.732;10.266;2023-07-02T11:11:30;27.70;90.30
20594;DHT22;10455;48.732;10.266;2023-07-02T11:16:32;26.60;91.30
20594;DHT22;10455;48.732;10.266;2023-07-02T11:21:35;26.00;91.90
20594;DHT22;10455;48.732;10.266;2023-07-02T11:26:39;24.80;94.20
20594;DHT22;10455;48.732;10.266;2023-07-02T11:31:41;25.30;93.70
20594;DHT22;10455;48.732;10.266;2023-07-02T11:36:44;25.30;93.90
20594;DHT22;10455;48.732;10.266;2023-07-02T11:41:48;25.20;93.00
20594;DHT22;10455;48.732;10.266;2023-07-02T11:46:51;25.30;93.50
20594;DHT22;10455;48.732;10.266;2023-07-02T11:51:53;24.80;93.50
20594;DHT22;10455;48.732;10.266;2023-07-02T11:56:56;25.70;94.00
20594;DHT22;10455;48.732;10.266;2023-07-02T12:01:58;28.00;92.60
20594;DHT22;10455;48.732;10.266;2023-07-02T12:07:01;30.10;84.80
20594;DHT22;10455;48.732;10.266;2023-07-02T12:12:06;30.40;82.10
20594;DHT22;10455;48.732;10.266;2023-07-02T12:17:08;29.10;84.10
20594;DHT22;10455;48.732;10.266;2023-07-02T12:22:10;28.50;87.60
20594;DHT22;10455;48.732;10.266;2023-07-02T12:27:13;28.40;85.60
20594;DHT22;10455;48.732;10.266;2023-07-02T12:32:15;27.60;91.10
20594;DHT22;10455;48.732;10.266;2023-07-02T12:37:17;27.60;90.60
20594;DHT22;10455;48.732;10.266;2023-07-02T12:42:22;27.40;89.90
20594;DHT22;10455;48.732;10.266;2023-07-02T12:47:24;28.30;88.30
20594;DHT22;10455;48.732;10.266;2023-07-02T12:52:26;27.00;88.50
20594;DHT22;10455;48.732;10.266;2023-07-02T12:57:29;27.70;83.20
20594;DHT22;10455;48.732;10.266;2023-07-02T13:02:31;27.60;81.20
20594;DHT22;10455;48.732;10.266;2023-07-02T13:07:33;26.80;84.30
20594;DHT22;10455;48.732;10.266;2023-07-02T13:12:36;27.00;84.80
20594;DHT22;10455;48.732;10.266;2023-07-02T13:17:38;27.00;81.30
20594;DHT22;10455;48.732;10.266;2023-07-02T13:22:41;27.80;77.90
20594;DHT22;10455;48.732;10.266;2023-07-02T13:27:45;29.80;79.60
20594;DHT22;10455;48.732;10.266;2023-07-02T13:32:47;29.30;80.20
20594;DHT22;10455;48.732;10.266;2023-07-02T13:37:50;29.00;79.80
20594;DHT22;10455;48.732;10.266;2023-07-02T13:42:53;28.20;79.90
20594;DHT22;10455;48.732;10.266;2023-07-02T13:47:56;27.80;82.50
20594;DHT22;10455;48.732;10.266;2023-07-02T13:52:58;27.80;81.00
20594;DHT22;10455;48.732;10.266;2023-07-02T13:58:01;27.30;81.70
20594;DHT22;10455;48.732;10.266;2023-07-02T14:03:05;28.40;78.60
20594;DHT22;10455;48.732;10.266;2023-07-02T14:08:09;30.20;73.70
20594;DHT22;10455;48.732;10.266;2023-07-02T14:13:11;29.50;74.10
20594;DHT22;10455;48.732;10.266;2023-07-02T14:18:14;30.60;72.80
20594;DHT22;10455;48.732;10.266;2023-07-02T14:23:16;30.50;70.80
20594;DHT22;10455;48.732;10.266;2023-07-02T14:28:18;30.30;71.50
20594;DHT22;10455;48.732;10.266;2023-07-02T14:33:21;32.20;69.00
20594;DHT22;10455;48.732;10.266;2023-07-02T14:38:23;33.10;66.10
20594;DHT22;10455;48.732;10.266;2023-07-02T14:43:27;30.80;68.30
20594;DHT22;10455;48.732;10.266;2023-07-02T14:48:30;29.40;72.60
20594;DHT22;10455;48.732;10.266;2023-07-02T14:53:33;28.30;73.20
20594;DHT22;10455;48.732;10.266;2023-07-02T14:58:35;27.90;76.40
20594;DHT22;10455;48.732;10.266;2023-07-02T15:03:38;28.50;76.10
20594;DHT22;10455;48.732;10.266;2023-07-02T15:08:40;29.40;73.30
20594;DHT22;10455;48.732;10.266;2023-07-02T15:13:43;30.80;70.00
20594;DHT22;10455;48.732;10.266;2023-07-02T15:18:46;31.40;69.90
20594;DHT22;10455;48.732;10.266;2023-07-02T15:23:48;31.00;68.40
20594;DHT22;10455;48.732;10.266;2023-07-02T15:28:50;31.90;67.60
20594;DHT22;10455;48.732;10.266;2023-07-02T15:33:53;31.10;68.20
20594;DHT22;10455;48.732;10.266;2023-07-02T15:38:55;30.10;69.70
20594;DHT22;10455;48.732;10.266;2023-07-02T15:43:58;31.20;67.20
20594;DHT22;10455;48.732;10.266;2023-07-02T15:49:05;30.30;68.20
20594;DHT22;10455;48.732;10.266;2023-07-02T15:54:07;30.20;70.60
20594;DHT22;10455;48.732;10.266;2023-07-02T15:59:09;31.20;66.40
20594;DHT22;10455;48.732;10.266;2023-07-02T16:04:12;30.50;66.60
20594;DHT22;10455;48.732;10.266;2023-07-02T16:09:15;29.30;69.40
20594;DHT22;10455;48.732;10.266;2023-07-02T16:14:18;28.00;74.10
20594;DHT22;10455;48.732;10.266;2023-07-02T16:19:24;28.90;71.90
20594;DHT22;10455;48.732;10.266;2023-07-02T16:24:28;30.60;69.80
20594;DHT22;10455;48.732;10.266;2023-07-02T16:29:30;30.40;68.90
20594;DHT22;10455;48.732;10.266;2023-07-02T16:34:33;28.40;73.30
20594;DHT22;10455;48.732;10.266;2023-07-02T16:39:35;28.70;70.90
20594;DHT22;10455;48.732;10.266;2023-07-02T16:44:37;28.20;73.80
20594;DHT22;10455;48.732;10.266;2023-07-02T16:49:40;26.50;74.70
20594;DHT22;10455;48.732;10.266;2023-07-02T16:54:48;25.60;75.10
20594;DHT22;10455;48.732;10.266;2023-07-02T16:59:51;24.90;80.10
20594;DHT22;10455;48.732;10.266;2023-07-02T17:04:54;24.50;79.40
20594;DHT22;10455;48.732;10.266;2023-07-02T17:09:56;24.50;81.40
20594;DHT22;10455;48.732;10.266;2023-07-02T17:14:58;24.50;84.60
20594;DHT22;10455;48.732;10.266;2023-07-02T17:20:02;24.50;82.50
20594;DHT22;10455;48.732;10.266;2023-07-02T17:25:05;24.00;84.00
20594;DHT22;10455;48.732;10.266;2023-07-02T17:30:08;23.70;86.50
20594;DHT22;10455;48.732;10.266;2023-07-02T17:35:13;23.90;85.40
20594;DHT22;10455;48.732;10.266;2023-07-02T17:40:15;24.00;85.00
20594;DHT22;10455;48.732;10.266;2023-07-02T17:45:17;23.70;85.00
20594;DHT22;10455;48.732;10.266;2023-07-02T17:50:20;23.40;88.10
20594;DHT22;10455;48.732;10.266;2023-07-02T17:55:22;22.90;87.40
20594;DHT22;10455;48.732;10.266;2023-07-02T18:00:24;22.80;89.70
20594;DHT22;10455;48.732;10.266;2023-07-02T18:05:27;22.90;89.90
20594;DHT22;10455;48.732;10.266;2023-07-02T18:10:29;23.20;90.70
20594;DHT22;10455;48.732;10.266;2023-07-02T18:15:31;23.00;89.20
20594;DHT22;10455;48.732;10.266;2023-07-02T18:20:34;22.90;90.50
20594;DHT22;10455;48.732;10.266;2023-07-02T18:25:36;22.70;90.90
20594;DHT22;10455;48.732;10.266;2023-07-02T18:30:42;22.10;92.30
20594;DHT22;10455;48.732;10.266;2023-07-02T18:35:45;21.40;94.00
20594;DHT22;10455;48.732;10.266;2023-07-02T18:40:57;20.90;94.90
20594;DHT22;10455;48.732;10.266;2023-07-02T18:45:59;20.60;95.80
20594;DHT22;10455;48.732;10.266;2023-07-02T18:51:05;20.20;96.90
20594;DHT22;10455;48.732;10.266;2023-07-02T18:56:07;19.80;98.00
20594;DHT22;10455;48.732;10.266;2023-07-02T19:01:10;19.50;99.70
20594;DHT22;10455;48.732;10.266;2023-07-02T19:06:14;19.00;99.90
20594;DHT22;10455;48.732;10.266;2023-07-02T19:11:16;18.60;99.90
20594;DHT22;10455;48.732;10.266;2023-07-02T19:16:18;18.20;99.90
20594;DHT22;10455;48.732;10.266;2023-07-02T19:21:21;17.90;99.90
20594;DHT22;10455;48.732;10.266;2023-07-02T19:26:23;17.60;99.90
20594;DHT22;10455;48.732;10.266;2023-07-02T19:31:25;17.10;99.90
20594;DHT22;10455;48.732;10.266;2023-07-02T19:36:28;16.80;99.90
20594;DHT22;10455;48.732;10.266;2023-07-02T19:41:30;16.60;99.90
20594;DHT22;10455;48.732;10.266;2023-07-02T19:46:32;16.40;99.90
20594;DHT22;10455;48.732;10.266;2023-07-02T19:51:36;16.10;99.90
20594;DHT22;10455;48.732;10.266;2023-07-02T19:56:40;15.70;99.90
20594;DHT22;10455;48.732;10.266;2023-07-02T20:01:42;15.30;99.90
20594;DHT22;10455;48.732;10.266;2023-07-02T20:06:45;15.10;99.90
20594;DHT22;10455;48.732;10.266;2023-07-02T20:11:47;14.90;99.90
20594;DHT22;10455;48.732;10.266;2023-07-02T20:16:49;15.00;99.90
20594;DHT22;10455;48.732;10.266;2023-07-02T20:21:52;15.00;99.90
20594;DHT22;10455;48.732;10.266;2023-07-02T20:26:56;15.00;99.90
20594;DHT22;10455;48.732;10.266;2023-07-02T20:31:58;14.90;99.90
20594;DHT22;10455;48.732;10.266;2023-07-02T20:37:02;14.90;99.90
20594;DHT22;10455;48.732;10.266;2023-07-02T20:42:04;14.80;99.90
20594;DHT22;10455;48.732;10.266;2023-07-02T20:47:07;14.80;99.90
20594;DHT22;10455;48.732;10.266;2023-07-02T20:52:10;14.70;99.90
20594;DHT22;10455;48.732;10.266;2023-07-02T20:57:12;14.50;99.90
20594;DHT22;10455;48.732;10.266;2023-07-02T21:02:15;14.50;99.90
20594;DHT22;10455;48.732;10.266;2023-07-02T21:07:21;14.30;99.90
20594;DHT22;10455;48.732;10.266;2023-07-02T21:12:22;14.20;99.90
20594;DHT22;10455;48.732;10.266;2023-07-02T21:17:24;14.00;99.90
20594;DHT22;10455;48.732;10.266;2023-07-02T21:22:28;13.80;99.90
20594;DHT22;10455;48.732;10.266;2023-07-02T21:27:29;13.50;99.90
20594;DHT22;10455;48.732;10.266;2023-07-02T21:32:33;13.30;99.90
20594;DHT22;10455;48.732;10.266;2023-07-02T21:37:36;13.10;99.90
20594;DHT22;10455;48.732;10.266;2023-07-02T21:42:38;13.20;99.90
20594;DHT22;10455;48.732;10.266;2023-07-02T21:47:40;13.20;99.90
20594;DHT22;10455;48.732;10.266;2023-07-02T21:52:43;13.00;99.90
20594;DHT22;10455;48.732;10.266;2023-07-02T21:57:45;13.00;99.90
20594;DHT22;10455;48.732;10.266;2023-07-02T22:02:47;13.00;99.90
20594;DHT22;10455;48.732;10.266;2023-07-02T22:07:51;13.10;99.90
20594;DHT22;10455;48.732;10.266;2023-07-02T22:12:53;13.20;99.90
20594;DHT22;10455;48.732;10.266;2023-07-02T22:17:54;13.20;99.90
20594;DHT22;10455;48.732;10.266;2023-07-02T22:23:04;13.30;99.90
20594;DHT22;10455;48.732;10.266;2023-07-02T22:28:06;13.20;99.90
20594;DHT22;10455;48.732;10.266;2023-07-02T22:33:08;13.10;99.90
20594;DHT22;10455;48.732;10.266;2023-07-02T22:38:11;12.90;99.90
20594;DHT22;10455;48.732;10.266;2023-07-02T22:43:13;12.80;99.90
20594;DHT22;10455;48.732;10.266;2023-07-02T22:48:15;12.60;99.90
20594;DHT22;10455;48.732;10.266;2023-07-02T22:53:18;12.30;99.90
20594;DHT22;10455;48.732;10.266;2023-07-02T22:58:21;12.10;99.90
20594;DHT22;10455;48.732;10.266;2023-07-02T23:03:23;12.10;99.90
20594;DHT22;10455;48.732;10.266;2023-07-02T23:08:26;12.20;99.90
20594;DHT22;10455;48.732;10.266;2023-07-02T23:13:28;12.20;99.90
20594;DHT22;10455;48.732;10.266;2023-07-02T23:18:30;12.30;99.90
20594;DHT22;10455;48.732;10.266;2023-07-02T23:23:36;12.20;99.90
20594;DHT22;10455;48.732;10.266;2023-07-02T23:28:39;11.90;99.90
20594;DHT22;10455;48.732;10.266;2023-07-02T23:33:42;11.80;99.90
20594;DHT22;10455;48.732;10.266;2023-07-02T23:38:45;11.60;99.90
20594;DHT22;10455;48.732;10.266;2023-07-02T23:43:48;11.40;99.90
20594;DHT22;10455;48.732;10.266;2023-07-02T23:48:50;11.30;99.90
20594;DHT22;10455;48.732;10.266;2023-07-02T23:53:53;11.40;99.90
20594;DHT22;10455;48.732;10.266;2023-07-02T23:58:55;11.30;99.90
